createdAt,value
2019-02-24T00:01:27.245Z,96548.73
2019-02-24T00:03:55.744Z,96545.19
2019-02-24T00:06:24.397Z,96553.52
2019-02-24T00:08:53.016Z,96553.65
2019-02-24T00:11:21.523Z,96553.89
2019-02-24T00:13:50.145Z,96549.11
2019-02-24T00:16:18.771Z,96548.56
2019-02-24T00:18:47.407Z,96544.45
2019-02-24T00:21:16.113Z,96554.19
2019-02-24T00:23:44.854Z,96556.56
2019-02-24T00:26:13.474Z,96549.89
2019-02-24T00:28:42.125Z,96562.69
2019-02-24T00:31:10.604Z,96561.56
2019-02-24T00:33:39.219Z,96560.02
2019-02-24T00:36:07.761Z,96557.64
2019-02-24T00:38:36.315Z,96557.94
2019-02-24T00:41:04.932Z,96567.47
2019-02-24T00:43:33.754Z,96561.72
2019-02-24T00:46:02.247Z,96558.56
2019-02-24T00:48:30.742Z,96556.94
2019-02-24T00:50:59.615Z,96556.44
2019-02-24T00:53:28.249Z,96548.52
2019-02-24T00:55:56.736Z,96557.60
2019-02-24T00:58:25.263Z,96551.14
2019-02-24T01:00:53.891Z,96548.92
2019-02-24T01:03:22.515Z,96555.05
2019-02-24T01:05:51.304Z,96555.49
2019-02-24T01:08:19.865Z,96553.42
2019-02-24T01:10:48.483Z,96557.20
2019-02-24T01:13:17.755Z,96553.86
2019-02-24T01:15:46.384Z,96553.25
2019-02-24T01:18:15.013Z,96552.16
2019-02-24T01:20:43.533Z,96551.74
2019-02-24T01:23:12.092Z,96555.73
2019-02-24T01:25:40.721Z,96550.19
2019-02-24T01:28:09.386Z,96551.74
2019-02-24T01:30:37.876Z,96549.63
2019-02-24T01:33:09.478Z,96551.89
2019-02-24T01:35:38.142Z,96551.27
2019-02-24T01:38:06.759Z,96551.32
2019-02-24T01:40:35.286Z,96556.60
2019-02-24T01:43:03.837Z,96552.73
2019-02-24T01:45:32.463Z,96554.31
2019-02-24T01:48:01.095Z,96542.39
2019-02-24T01:50:29.604Z,96547.82
2019-02-24T01:52:58.336Z,96558.59
2019-02-24T01:55:26.815Z,96550.56
2019-02-24T01:57:55.340Z,96547.32
2019-02-24T02:00:23.957Z,96544.12
2019-02-24T02:02:52.571Z,96540.13
2019-02-24T02:05:21.095Z,96537.88
2019-02-24T02:07:49.588Z,96534.58
2019-02-24T02:10:18.220Z,96538.50
2019-02-24T02:12:46.903Z,96521.27
2019-02-24T02:15:15.382Z,96523.72
2019-02-24T02:17:43.878Z,96523.40
2019-02-24T02:20:12.493Z,96522.31
2019-02-24T02:22:41.143Z,96515.90
2019-02-24T02:25:10.063Z,96516.48
2019-02-24T02:27:38.620Z,96508.70
2019-02-24T02:30:10.337Z,96511.66
2019-02-24T02:32:38.953Z,96505.83
2019-02-24T02:35:08.778Z,96510.16
2019-02-24T02:37:37.585Z,96510.16
2019-02-24T02:40:08.022Z,96509.98
2019-02-24T02:42:36.672Z,96504.41
2019-02-24T02:45:07.546Z,96505.20
2019-02-24T02:47:36.093Z,96507.23
2019-02-24T02:50:05.612Z,96508.41
2019-02-24T02:52:34.263Z,96512.69
2019-02-24T02:55:02.831Z,96514.52
2019-02-24T02:57:31.304Z,96511.86
2019-02-24T02:59:59.971Z,96517.44
2019-02-24T03:02:28.589Z,96521.18
2019-02-24T03:04:57.072Z,96516.10
2019-02-24T03:07:35.733Z,96514.08
2019-02-24T03:10:05.057Z,96508.95
2019-02-24T03:12:33.616Z,96515.06
2019-02-24T03:15:02.319Z,96512.03
2019-02-24T03:17:30.977Z,96508.11
2019-02-24T03:19:59.469Z,96512.57
2019-02-24T03:22:28.014Z,96512.49
2019-02-24T03:24:56.647Z,96509.61
2019-02-24T03:27:25.261Z,96516.02
2019-02-24T03:29:53.794Z,96516.32
2019-02-24T03:32:22.293Z,96518.44
2019-02-24T03:34:50.905Z,96519.23
2019-02-24T03:37:19.776Z,96521.52
2019-02-24T03:39:48.272Z,96520.81
2019-02-24T03:42:16.752Z,96519.65
2019-02-24T03:44:45.615Z,96518.78
2019-02-24T03:47:14.233Z,96516.12
2019-02-24T03:49:42.784Z,96513.70
2019-02-24T03:52:11.675Z,96514.02
2019-02-24T03:54:40.291Z,96512.37
2019-02-24T03:57:08.511Z,96511.83
2019-02-24T03:59:37.267Z,96513.87
2019-02-24T04:02:05.885Z,96504.00
2019-02-24T04:04:34.438Z,96507.20
2019-02-24T04:07:03.034Z,96510.66
2019-02-24T04:09:31.659Z,96510.95
2019-02-24T04:12:00.279Z,96505.41
2019-02-24T04:14:28.795Z,96512.37
2019-02-24T04:16:57.285Z,96506.37
2019-02-24T04:19:25.914Z,96505.04
2019-02-24T04:21:54.559Z,96503.16
2019-02-24T04:24:23.035Z,96507.92
2019-02-24T04:26:51.528Z,96499.16
2019-02-24T04:29:24.850Z,96498.97
2019-02-24T04:31:50.489Z,96498.92
2019-02-24T04:34:19.106Z,96501.33
2019-02-24T04:36:47.782Z,96496.55
2019-02-24T04:39:16.268Z,96503.75
2019-02-24T04:41:44.761Z,96494.50
2019-02-24T04:44:13.439Z,96492.01
2019-02-24T04:46:42.100Z,96488.55
2019-02-24T04:49:10.593Z,96493.64
2019-02-24T04:51:39.106Z,96488.88
2019-02-24T04:54:07.735Z,96490.43
2019-02-24T04:56:36.366Z,96487.55
2019-02-24T04:59:04.894Z,96478.06
2019-02-24T05:01:33.374Z,96482.44
2019-02-24T05:04:01.998Z,96484.10
2019-02-24T05:06:30.651Z,96492.97
2019-02-24T05:08:59.129Z,96490.38
2019-02-24T05:11:27.760Z,96500.25
2019-02-24T05:13:56.257Z,96508.66
2019-02-24T05:16:24.731Z,96514.28
2019-02-24T05:18:53.350Z,96511.36
2019-02-24T05:21:21.974Z,96514.42
2019-02-24T05:23:50.659Z,96517.03
2019-02-24T05:26:19.156Z,96523.81
2019-02-24T05:28:47.775Z,96518.63
2019-02-24T05:31:16.418Z,96522.23
2019-02-24T05:33:44.908Z,96531.08
2019-02-24T05:36:13.392Z,96535.18
2019-02-24T05:38:42.071Z,96536.87
2019-02-24T05:41:10.755Z,96534.45
2019-02-24T05:43:39.254Z,96541.06
2019-02-24T05:46:07.785Z,96537.31
2019-02-24T05:48:36.458Z,96538.90
2019-02-24T05:51:04.957Z,96550.83
2019-02-24T05:53:33.633Z,96553.75
2019-02-24T05:56:02.252Z,96560.25
2019-02-24T05:58:30.738Z,96553.16
2019-02-24T06:00:59.281Z,96564.27
2019-02-24T06:03:27.897Z,96554.95
2019-02-24T06:05:56.516Z,96562.39
2019-02-24T06:08:25.046Z,96563.97
2019-02-24T06:10:53.527Z,96569.93
2019-02-24T06:13:22.149Z,96567.85
2019-02-24T06:15:50.772Z,96566.62
2019-02-24T06:18:19.259Z,96571.11
2019-02-24T06:20:47.758Z,96581.05
2019-02-24T06:23:16.428Z,96576.36
2019-02-24T06:25:45.058Z,96585.36
2019-02-24T06:28:13.603Z,96588.05
2019-02-24T06:30:42.276Z,96580.53
2019-02-24T06:33:10.825Z,96584.61
2019-02-24T06:35:39.322Z,96581.88
2019-02-24T06:38:08.160Z,96582.56
2019-02-24T06:40:36.800Z,96584.63
2019-02-24T06:43:05.351Z,96587.13
2019-02-24T06:45:34.057Z,96585.14
2019-02-24T06:48:02.732Z,96582.53
2019-02-24T06:50:35.598Z,96594.17
2019-02-24T06:53:03.224Z,96582.98
2019-02-24T06:55:31.699Z,96583.34
2019-02-24T06:58:00.331Z,96592.63
2019-02-24T07:00:29.200Z,96575.80
2019-02-24T07:02:57.685Z,96597.20
2019-02-24T07:05:26.306Z,96596.67
2019-02-24T07:07:54.905Z,96597.30
2019-02-24T07:10:23.475Z,96604.02
2019-02-24T07:12:52.105Z,96600.27
2019-02-24T07:15:20.793Z,96602.86
2019-02-24T07:17:49.258Z,96609.89
2019-02-24T07:20:17.808Z,96606.45
2019-02-24T07:22:46.456Z,96605.12
2019-02-24T07:25:15.086Z,96614.64
2019-02-24T07:27:43.580Z,96601.88
2019-02-24T07:30:12.493Z,96597.83
2019-02-24T07:32:41.120Z,96593.87
2019-02-24T07:35:09.938Z,96594.79
2019-02-24T07:37:38.554Z,96603.64
2019-02-24T07:40:07.201Z,96612.48
2019-02-24T07:42:35.816Z,96610.91
2019-02-24T07:45:06.255Z,96599.62
2019-02-24T07:47:34.744Z,96603.77
2019-02-24T07:50:03.306Z,96601.95
2019-02-24T07:52:31.975Z,96598.58
2019-02-24T07:55:00.601Z,96598.62
2019-02-24T07:57:29.228Z,96595.13
2019-02-24T07:59:58.048Z,96607.36
2019-02-24T08:02:26.613Z,96602.16
2019-02-24T08:04:55.087Z,96588.47
2019-02-24T08:07:23.760Z,96596.34
2019-02-24T08:09:52.423Z,96591.08
2019-02-24T08:12:20.916Z,96595.05
2019-02-24T08:14:49.511Z,96599.24
2019-02-24T08:17:18.135Z,96576.69
2019-02-24T08:19:46.765Z,96602.85
2019-02-24T08:22:15.288Z,96598.22
2019-02-24T08:24:43.769Z,96594.66
2019-02-24T08:27:12.402Z,96589.41
2019-02-24T08:29:40.991Z,96592.00
2019-02-24T08:32:09.617Z,96585.41
2019-02-24T08:34:38.252Z,96587.19
2019-02-24T08:37:06.846Z,96590.78
2019-02-24T08:39:35.334Z,96587.77
2019-02-24T08:42:03.961Z,96601.08
2019-02-24T08:44:32.631Z,96589.22
2019-02-24T08:47:01.121Z,96586.87
2019-02-24T08:49:29.614Z,96592.80
2019-02-24T08:51:58.287Z,96583.81
2019-02-24T08:54:26.956Z,96583.73
2019-02-24T08:56:55.763Z,96587.28
2019-02-24T08:59:24.332Z,96578.44
2019-02-24T09:01:52.951Z,96579.52
2019-02-24T09:04:21.570Z,96575.20
2019-02-24T09:06:50.306Z,96576.22
2019-02-24T09:09:18.929Z,96577.10
2019-02-24T09:11:47.416Z,96577.28
2019-02-24T09:14:16.068Z,96571.20
2019-02-24T09:16:44.685Z,96564.13
2019-02-24T09:19:13.314Z,96579.00
2019-02-24T09:21:42.113Z,96565.73
2019-02-24T09:24:10.600Z,96558.33
2019-02-24T09:26:39.228Z,96558.78
2019-02-24T09:29:08.160Z,96563.92
2019-02-24T09:31:36.640Z,96568.28
2019-02-24T09:34:05.186Z,96565.52
2019-02-24T09:36:34.130Z,96565.48
2019-02-24T09:39:04.389Z,96574.02
2019-02-24T09:41:32.875Z,96563.92
2019-02-24T09:44:01.707Z,96560.36
2019-02-24T09:46:30.329Z,96559.55
2019-02-24T09:48:58.812Z,96552.06
2019-02-24T09:51:27.433Z,96549.01
2019-02-24T09:53:56.067Z,96557.06
2019-02-24T09:56:24.923Z,96547.20
2019-02-24T09:58:53.411Z,96528.14
2019-02-24T10:01:22.024Z,96537.62
2019-02-24T10:03:50.708Z,96538.47
2019-02-24T10:06:19.261Z,96535.12
2019-02-24T10:08:47.801Z,96533.61
2019-02-24T10:11:16.468Z,96534.13
2019-02-24T10:13:45.085Z,96516.40
2019-02-24T10:16:13.649Z,96514.98
2019-02-24T10:18:42.172Z,96510.31
2019-02-24T10:21:10.731Z,96504.99
2019-02-24T10:23:39.348Z,96500.20
2019-02-24T10:26:07.948Z,96490.16
2019-02-24T10:28:36.437Z,96488.44
2019-02-24T10:31:05.130Z,96490.27
2019-02-24T10:33:33.780Z,96478.80
2019-02-24T10:36:02.266Z,96473.63
2019-02-24T10:38:30.754Z,96479.53
2019-02-24T10:40:59.410Z,96476.51
2019-02-24T10:43:28.042Z,96481.19
2019-02-24T10:45:56.613Z,96478.22
2019-02-24T10:48:25.135Z,96478.00
2019-02-24T10:50:53.763Z,96484.16
2019-02-24T10:53:22.387Z,96483.30
2019-02-24T10:55:50.908Z,96473.23
2019-02-24T10:58:21.241Z,96472.77
2019-02-24T11:00:50.032Z,96476.38
2019-02-24T11:03:18.717Z,96478.67
2019-02-24T11:05:47.227Z,96471.86
2019-02-24T11:08:15.846Z,96469.61
2019-02-24T11:10:44.372Z,96459.50
2019-02-24T11:13:12.945Z,96463.45
2019-02-24T11:15:41.571Z,96455.45
2019-02-24T11:18:10.232Z,96455.45
2019-02-24T11:20:38.702Z,96458.37
2019-02-24T11:23:07.194Z,96445.38
2019-02-24T11:25:35.867Z,96448.48
2019-02-24T11:28:04.503Z,96445.66
2019-02-24T11:30:33.014Z,96450.58
2019-02-24T11:33:01.672Z,96434.72
2019-02-24T11:35:30.315Z,96430.64
2019-02-24T11:37:58.958Z,96427.55
2019-02-24T11:40:27.772Z,96428.47
2019-02-24T11:42:56.269Z,96424.41
2019-02-24T11:45:24.997Z,96416.75
2019-02-24T11:47:53.532Z,96418.92
2019-02-24T11:50:22.165Z,96414.00
2019-02-24T11:52:50.791Z,96415.61
2019-02-24T11:55:19.325Z,96403.34
2019-02-24T11:57:47.809Z,96410.28
2019-02-24T12:00:16.644Z,96395.77
2019-02-24T12:02:45.448Z,96383.33
2019-02-24T12:05:14.280Z,96383.33
2019-02-24T12:07:42.836Z,96392.21
2019-02-24T12:10:12.610Z,96391.94
2019-02-24T12:12:41.256Z,96390.75
2019-02-24T12:15:14.031Z,96382.92
2019-02-24T12:17:42.799Z,96381.81
2019-02-24T12:20:12.533Z,96378.06
2019-02-24T12:22:41.177Z,96378.23
2019-02-24T12:25:11.900Z,96371.36
2019-02-24T12:27:40.451Z,96382.57
2019-02-24T12:30:16.490Z,96384.09
2019-02-24T12:32:45.078Z,96385.17
2019-02-24T12:35:13.710Z,96376.25
2019-02-24T12:37:42.332Z,96378.89
2019-02-24T12:40:12.900Z,96376.23
2019-02-24T12:42:41.466Z,96380.32
2019-02-24T12:45:10.990Z,96378.86
2019-02-24T12:47:39.646Z,96381.13
2019-02-24T12:50:13.654Z,96380.02
2019-02-24T12:52:42.205Z,96380.91
2019-02-24T12:55:11.362Z,96374.91
2019-02-24T12:57:40.696Z,96371.72
2019-02-24T13:00:19.250Z,96380.36
2019-02-24T13:02:47.787Z,96383.19
2019-02-24T13:05:17.324Z,96371.11
2019-02-24T13:07:45.950Z,96372.22
2019-02-24T13:10:26.921Z,96392.07
2019-02-24T13:12:55.475Z,96369.04
2019-02-24T13:15:24.105Z,96358.91
2019-02-24T13:17:52.763Z,96383.95
2019-02-24T13:20:21.330Z,96400.13
2019-02-24T13:22:49.881Z,96381.41
2019-02-24T13:25:18.540Z,96366.59
2019-02-24T13:27:47.210Z,96379.39
2019-02-24T13:30:17.408Z,96372.80
2019-02-24T13:32:46.220Z,96373.86
2019-02-24T13:35:14.831Z,96369.56
2019-02-24T13:37:43.467Z,96363.63
2019-02-24T13:40:16.430Z,96369.42
2019-02-24T13:42:44.976Z,96380.03
2019-02-24T13:45:18.604Z,96373.35
2019-02-24T13:47:47.194Z,96381.05
2019-02-24T13:50:16.225Z,96368.17
2019-02-24T13:52:44.862Z,96366.41
2019-02-24T13:55:14.507Z,96366.42
2019-02-24T13:57:43.137Z,96375.95
2019-02-24T14:00:17.206Z,96381.50
2019-02-24T14:02:45.866Z,96364.28
2019-02-24T14:05:14.478Z,96374.23
2019-02-24T14:07:43.037Z,96368.03
2019-02-24T14:10:13.300Z,96375.12
2019-02-24T14:12:41.916Z,96364.96
2019-02-24T14:15:12.232Z,96374.45
2019-02-24T14:17:40.765Z,96372.47
2019-02-24T14:20:16.720Z,96368.77
2019-02-24T14:22:45.584Z,96361.40
2019-02-24T14:25:14.900Z,96360.64
2019-02-24T14:27:43.529Z,96358.25
2019-02-24T14:30:17.075Z,96361.06
2019-02-24T14:32:45.709Z,96375.73
2019-02-24T14:35:19.361Z,96369.88
2019-02-24T14:37:53.738Z,96372.79
2019-02-24T14:40:22.380Z,96377.89
2019-02-24T14:42:50.873Z,96376.91
2019-02-24T14:45:24.265Z,96364.60
2019-02-24T14:47:52.897Z,96367.31
2019-02-24T14:50:21.458Z,96367.33
2019-02-24T14:52:49.969Z,96364.75
2019-02-24T14:55:18.698Z,96367.41
2019-02-24T14:57:47.377Z,96360.17
2019-02-24T15:00:23.631Z,96356.82
2019-02-24T15:02:52.120Z,96358.39
2019-02-24T15:05:20.752Z,96359.28
2019-02-24T15:07:49.285Z,96360.84
2019-02-24T15:10:19.320Z,96364.44
2019-02-24T15:12:47.942Z,96364.45
2019-02-24T15:15:19.299Z,96359.06
2019-02-24T15:17:47.847Z,96359.08
2019-02-24T15:20:20.898Z,96362.80
2019-02-24T15:22:49.638Z,96360.98
2019-02-24T15:25:18.770Z,96362.66
2019-02-24T15:27:47.406Z,96366.91
2019-02-24T15:30:24.798Z,96363.44
2019-02-24T15:32:53.410Z,96362.22
2019-02-24T15:35:21.973Z,96362.66
2019-02-24T15:37:50.628Z,96365.35
2019-02-24T15:40:19.250Z,96361.45
2019-02-24T15:42:47.885Z,96361.22
2019-02-24T15:45:16.549Z,96360.45
2019-02-24T15:47:45.185Z,96354.96
2019-02-24T15:50:14.239Z,96357.89
2019-02-24T15:52:42.837Z,96349.95
2019-02-24T15:55:13.835Z,96365.35
2019-02-24T15:57:42.458Z,96367.58
2019-02-24T16:00:14.202Z,96364.32
2019-02-24T16:02:42.751Z,96368.66
2019-02-24T16:05:11.964Z,96372.24
2019-02-24T16:07:40.726Z,96367.20
2019-02-24T16:10:12.260Z,96381.04
2019-02-24T16:12:40.875Z,96375.91
2019-02-24T16:15:12.344Z,96364.30
2019-02-24T16:17:40.926Z,96375.76
2019-02-24T16:20:18.124Z,96371.31
2019-02-24T16:22:46.748Z,96379.66
2019-02-24T16:25:15.364Z,96381.78
2019-02-24T16:27:44.321Z,96380.52
2019-02-24T16:30:14.974Z,96381.19
2019-02-24T16:32:43.600Z,96381.94
2019-02-24T16:35:14.981Z,96392.08
2019-02-24T16:37:43.479Z,96393.30
2019-02-24T16:40:17.221Z,96388.63
2019-02-24T16:42:45.891Z,96391.55
2019-02-24T16:45:15.933Z,96389.30
2019-02-24T16:47:44.830Z,96391.77
2019-02-24T16:50:18.790Z,96407.12
2019-02-24T16:52:47.421Z,96405.34
2019-02-24T16:55:16.736Z,96403.34
2019-02-24T16:57:45.696Z,96407.36
2019-02-24T17:00:17.194Z,96410.27
2019-02-24T17:02:45.828Z,96414.23
2019-02-24T17:05:14.702Z,96410.22
2019-02-24T17:07:43.409Z,96407.22
2019-02-24T17:10:17.604Z,96404.00
2019-02-24T17:12:46.363Z,96402.48
2019-02-24T17:15:14.985Z,96405.42
2019-02-24T17:17:43.675Z,96407.34
2019-02-24T17:20:19.780Z,96400.67
2019-02-24T17:22:48.411Z,96396.45
2019-02-24T17:25:17.044Z,96397.57
2019-02-24T17:27:45.945Z,96396.58
2019-02-24T17:30:16.038Z,96399.03
2019-02-24T17:32:44.590Z,96397.31
2019-02-24T17:35:13.559Z,96396.53
2019-02-24T17:37:42.193Z,96390.08
2019-02-24T17:40:13.113Z,96397.25
2019-02-24T17:42:41.775Z,96391.34
2019-02-24T17:45:12.206Z,96395.79
2019-02-24T17:47:40.805Z,96400.72
2019-02-24T17:50:11.928Z,96400.36
2019-02-24T17:52:40.556Z,96397.57
2019-02-24T17:55:11.279Z,96404.97
2019-02-24T17:57:39.818Z,96409.98
2019-02-24T18:00:14.743Z,96409.17
2019-02-24T18:02:43.354Z,96409.02
2019-02-24T18:05:11.959Z,96410.51
2019-02-24T18:07:40.526Z,96405.23
2019-02-24T18:10:09.152Z,96404.19
2019-02-24T18:12:37.801Z,96412.89
2019-02-24T18:15:09.559Z,96417.56
2019-02-24T18:17:38.055Z,96417.20
2019-02-24T18:20:09.954Z,96418.97
2019-02-24T18:22:38.582Z,96423.48
2019-02-24T18:25:10.357Z,96422.02
2019-02-24T18:27:39.013Z,96423.44
2019-02-24T18:30:13.356Z,96416.19
2019-02-24T18:32:41.970Z,96416.42
2019-02-24T18:35:10.640Z,96415.52
2019-02-24T18:37:39.379Z,96416.41
2019-02-24T18:40:11.006Z,96418.30
2019-02-24T18:42:39.652Z,96419.34
2019-02-24T18:45:10.666Z,96422.25
2019-02-24T18:47:39.214Z,96423.01
2019-02-24T18:50:10.743Z,96427.06
2019-02-24T18:52:39.415Z,96426.28
2019-02-24T18:55:10.033Z,96426.28
2019-02-24T18:57:38.666Z,96429.94
2019-02-24T19:00:13.081Z,96428.48
2019-02-24T19:02:41.708Z,96433.72
2019-02-24T19:05:10.370Z,96427.02
2019-02-24T19:07:38.996Z,96422.02
2019-02-24T19:10:16.196Z,96425.02
2019-02-24T19:12:44.826Z,96424.81
2019-02-24T19:15:18.398Z,96425.38
2019-02-24T19:17:47.139Z,96439.48
2019-02-24T19:20:22.702Z,96429.88
2019-02-24T19:22:51.322Z,96435.79
2019-02-24T19:25:19.953Z,96428.70
2019-02-24T19:27:48.865Z,96437.73
2019-02-24T19:30:18.687Z,96439.38
2019-02-24T19:32:47.306Z,96439.61
2019-02-24T19:35:16.825Z,96437.48
2019-02-24T19:37:45.759Z,96437.17
2019-02-24T19:40:21.337Z,96440.39
2019-02-24T19:42:50.067Z,96440.88
2019-02-24T19:45:22.966Z,96437.12
2019-02-24T19:47:51.542Z,96439.56
2019-02-24T19:50:26.231Z,96433.54
2019-02-24T19:52:54.857Z,96430.34
2019-02-24T19:55:23.655Z,96432.24
2019-02-24T19:57:52.212Z,96421.77
2019-02-24T20:00:27.635Z,96420.75
2019-02-24T20:02:56.585Z,96416.42
2019-02-24T20:05:25.125Z,96413.11
2019-02-24T20:07:53.684Z,96410.30
2019-02-24T20:10:26.704Z,96412.71
2019-02-24T20:12:55.370Z,96408.45
2019-02-24T20:15:23.995Z,96412.77
2019-02-24T20:17:52.794Z,96407.97
2019-02-24T20:20:21.423Z,96406.50
2019-02-24T20:22:50.074Z,96409.05
2019-02-24T20:25:22.840Z,96406.32
2019-02-24T20:27:51.591Z,96415.27
2019-02-24T20:30:25.408Z,96410.03
2019-02-24T20:32:54.271Z,96417.77
2019-02-24T20:35:22.969Z,96416.42
2019-02-24T20:37:51.595Z,96418.87
2019-02-24T20:40:20.256Z,96413.31
2019-02-24T20:42:48.905Z,96420.20
2019-02-24T20:45:19.434Z,96415.38
2019-02-24T20:47:48.190Z,96418.69
2019-02-24T20:50:22.659Z,96413.78
2019-02-24T20:52:51.147Z,96415.86
2019-02-24T20:55:19.855Z,96415.62
2019-02-24T20:57:48.476Z,96420.90
2019-02-24T21:00:22.693Z,96418.34
2019-02-24T21:02:51.663Z,96412.16
2019-02-24T21:05:20.301Z,96418.96
2019-02-24T21:07:48.803Z,96413.50
2019-02-24T21:10:17.702Z,96409.70
2019-02-24T21:12:46.324Z,96405.32
2019-02-24T21:15:17.128Z,96403.87
2019-02-24T21:17:45.715Z,96402.05
2019-02-24T21:20:19.565Z,96410.34
2019-02-24T21:22:50.423Z,96406.25
2019-02-24T21:25:18.584Z,96406.66
2019-02-24T21:27:47.138Z,96409.19
2019-02-24T22:05:32.408Z,96396.29
2019-02-24T22:08:58.427Z,96409.55
2019-02-24T22:11:26.952Z,96410.03
2019-02-24T22:17:36.216Z,96410.73
2019-02-24T22:20:07.354Z,96407.27
2019-02-24T22:22:35.986Z,96407.81
2019-02-24T22:25:09.718Z,96406.81
2019-02-24T22:27:38.278Z,96404.55
2019-02-24T22:30:12.369Z,96401.88
2019-02-24T22:32:41.040Z,96405.10
2019-02-24T22:35:10.183Z,96408.08
2019-02-24T22:37:38.747Z,96403.28
2019-02-24T22:40:10.634Z,96404.03
2019-02-24T22:42:39.275Z,96401.42
2019-02-24T22:45:13.582Z,96404.33
2019-02-24T22:47:43.018Z,96407.53
2019-02-24T22:50:12.251Z,96413.02
2019-02-24T22:52:40.886Z,96408.63
2019-02-24T22:55:12.480Z,96403.50
2019-02-24T22:57:41.124Z,96414.44
2019-02-24T23:00:52.436Z,96406.03
2019-02-24T23:03:22.683Z,96416.47
2019-02-24T23:05:51.504Z,96413.42
2019-02-24T23:08:20.426Z,96417.06
2019-02-24T23:10:49.070Z,96414.25
2019-02-24T23:13:17.702Z,96410.64
2019-02-24T23:15:46.388Z,96411.67
2019-02-24T23:18:15.012Z,96415.19
2019-02-24T23:20:43.567Z,96416.86
2019-02-24T23:23:12.247Z,96416.22
2019-02-24T23:25:40.883Z,96416.98
2019-02-24T23:28:09.506Z,96405.52
2019-02-24T23:30:38.185Z,96407.42
2019-02-24T23:33:06.737Z,96405.86
2019-02-24T23:35:35.382Z,96400.85
2019-02-24T23:38:04.045Z,96391.97
2019-02-24T23:40:38.502Z,96400.85
2019-02-24T23:43:07.160Z,96401.16
2019-02-24T23:45:35.908Z,96399.91
2019-02-24T23:48:04.554Z,96395.81
2019-02-24T23:50:33.237Z,96395.81
2019-02-24T23:53:01.869Z,96396.21
2019-02-24T23:55:30.352Z,96400.91
2019-02-24T23:57:58.893Z,96400.81
